Wednesday, January 17, 2018, 7:15 PM EST

KGED, Georgetown Sussex Co Airport

Location: Georgetown, DE, United States Lat: 38.683
Local Time: 7:15 PM EST ( 0:15 GMT) Lon: -75.367
Time Zone: US/Eastern Elev: 52 ft

Show me the last for .
Show Decoded

2018-01-17 18:54 METAR KGED 172354Z AUTO 33006KT 10SM OVC075 M03/M13 A3025 RMK AO2 SLP245
                 T10331128 11017 21033 58000 =
2018-01-17 17:54 METAR KGED 172254Z AUTO 31008KT 10SM BKN080 OVC095 M03/M12 A3026 RMK AO2 SLP248
                 T10281122 =
2018-01-17 16:54 METAR KGED 172154Z AUTO 32005KT 10SM OVC085 M03/M12 A3025 RMK AO2 SLP245
                 T10281117 =
2018-01-17 15:54 METAR KGED 172054Z AUTO 33006KT 10SM BKN060 OVC080 M02/M11 A3025 RMK AO2 SLP245
                 T10221111 56009 =
2018-01-17 14:54 METAR KGED 171954Z AUTO 34009G15KT 10SM BKN049 OVC065 M02/M10 A3026 RMK AO2
                 SLP246 T10221100 =
2018-01-17 13:54 METAR KGED 171854Z AUTO 30006KT 10SM SCT050 OVC070 M02/M07 A3027 RMK AO2 SLP250
                 T10171072 =
2018-01-17 12:54 METAR KGED 171754Z AUTO 32008KT 10SM OVC060 M02/M07 A3028 RMK AO2 SNB03E25
                 SLP254 P0000 60000 T10171067 10022 21017 58020 =
2018-01-17 11:54 METAR KGED 171654Z AUTO VRB06KT 10SM FEW039 FEW049 OVC095 M01/M06 A3031 RMK AO2
                 SNB27E38 SLP264 P0000 T10111056 =
2018-01-17 11:44 METAR KGED 171644Z AUTO 32007G15KT 9SM SCT012 OVC095 M01/M04 A3031 RMK AO2
                 SNB27E38 P0000 T10111044 =
2018-01-17 10:54 METAR KGED 171554Z AUTO 32007KT 7SM OVC013 00/M03 A3033 RMK AO2 SNB34E47 SLP269
                 P0000 T00001033 =
2018-01-17 09:54 METAR KGED 171454Z AUTO 34007G14KT 300V360 4SM HZ OVC012 00/M03 A3034 RMK AO2
                 SLP274 T00001028 53012 =
2018-01-17 08:54 METAR KGED 171354Z AUTO 33007KT 290V360 4SM HZ OVC010 01/M02 A3031 RMK AO2
                 SLP264 T00111017 =
2018-01-17 08:18 METAR KGED 171318Z AUTO 33006KT 3SM BR OVC009 01/M01 A3031 RMK AO2 T00111011 =
2018-01-17 07:54 METAR KGED 171254Z AUTO 34006KT 3SM HZ OVC010 02/M01 A3031 RMK AO2 SLP262
                 T00171011 =
2018-01-17 07:35 METAR KGED 171235Z AUTO 34006KT 5SM HZ OVC011 02/M01 A3030 RMK AO2 T00171011 =
2018-01-17 07:16 METAR KGED 171216Z AUTO 31007KT 5SM BR OVC009 02/M01 A3031 RMK AO2 CIG 008V013
                 T00171006 =
2018-01-17 06:54 METAR KGED 171154Z AUTO 31006KT 5SM HZ OVC010 02/M01 A3031 RMK AO2 SLP264
                 T00221006 10033 20022 53016 =
2018-01-17 06:14 METAR KGED 171114Z AUTO 32004KT 6SM HZ OVC014 02/M01 A3030 RMK AO2 T00221006 =
2018-01-17 06:03 METAR KGED 171103Z AUTO 32005KT 7SM OVC016 02/M01 A3029 RMK AO2 T00221006 =
2018-01-17 05:54 METAR KGED 171054Z AUTO VRB04KT 7SM OVC014 02/M01 A3029 RMK AO2 SLP255 T00221006
                 =
2018-01-17 05:40 METAR KGED 171040Z AUTO 32005KT 7SM OVC014 03/M01 A3028 RMK AO2 T00281006 =
2018-01-17 05:05 METAR KGED 171005Z AUTO 31006KT 10SM OVC015 03/00 A3027 RMK AO2 T00280000 =
2018-01-17 04:54 METAR KGED 170954Z AUTO 31007KT 10SM OVC014 03/00 A3027 RMK AO2 SLP249 T00280000
                 =
2018-01-17 04:38 METAR KGED 170938Z AUTO 30006KT 10SM BKN014 BKN050 OVC085 03/00 A3026 RMK AO2
                 T00330000 =
2018-01-17 03:54 METAR KGED 170854Z AUTO 00000KT 10SM SCT012 SCT060 OVC095 03/01 A3026 RMK AO2
                 SLP248 T00330006 58007 =
2018-01-17 03:08 METAR KGED 170808Z AUTO 31004KT 10SM OVC011 03/01 A3027 RMK AO2 T00330006 =
2018-01-17 02:54 METAR KGED 170754Z AUTO 00000KT 10SM OVC009 03/01 A3027 RMK AO2 CIG 008V011
                 SLP251 T00330011 =
2018-01-17 01:54 METAR KGED 170654Z AUTO 31003KT 10SM OVC005 03/01 A3028 RMK AO2 CIG 005V008
                 SLP253 T00330011 =
2018-01-17 01:44 METAR KGED 170644Z AUTO VRB03KT 8SM OVC005 03/02 A3028 RMK AO2 T00330017 =
2018-01-17 01:26 METAR KGED 170626Z AUTO 02003KT 7SM OVC004 03/02 A3027 RMK AO2 T00330017 =

Support USWX by starting your Amazon purchase here.